Time;durP1;ratioP1;P1;durP2;ratioP2;P2;SDS_P1;SDS_P2;PMS_P1;PMS_P2;Temp;Humidity;BMP_temperature;BMP_pressure;BME280_temperature;BME280_humidity;BME280_pressure;Samples;Min_cycle;Max_cycle;Signal;HPM_P1;HPM_P2
2023/07/07 00:02:23;;;;;;;5.10;3.10;;;;;;;;;;5045055;28;20077;-74
2023/07/07 00:05:08;;;;;;;8.55;3.13;;;;;;;;;;5033032;28;20029;-76
2023/07/07 00:07:54;;;;;;;5.18;3.08;;;;;;;;;;5041145;28;20380;-75
2023/07/07 00:10:42;;;;;;;6.35;3.22;;;;;;;;;;5029620;28;20429;-74
2023/07/07 00:13:28;;;;;;;5.63;2.43;;;;;;;;;;5051331;28;20025;-73
2023/07/07 00:16:14;;;;;;;4.65;2.80;;;;;;;;;;5033218;28;20433;-75
2023/07/07 00:18:59;;;;;;;7.22;3.30;;;;;;;;;;5018561;28;20022;-75
2023/07/07 00:21:44;;;;;;;5.97;3.55;;;;;;;;;;5050324;28;20106;-79
2023/07/07 00:24:30;;;;;;;5.50;3.15;;;;;;;;;;5035204;28;20064;-79
2023/07/07 00:27:15;;;;;;;4.65;3.10;;;;;;;;;;5044214;28;20502;-79
2023/07/07 00:30:00;;;;;;;5.82;2.60;;;;;;;;;;5022266;28;20036;-81
2023/07/07 00:32:45;;;;;;;4.80;2.72;;;;;;;;;;5069628;28;20498;-79
2023/07/07 00:35:31;;;;;;;10.68;3.25;;;;;;;;;;5038153;28;20179;-80
2023/07/07 00:38:16;;;;;;;5.45;2.67;;;;;;;;;;5038955;28;20548;-71
2023/07/07 00:41:02;;;;;;;6.10;3.53;;;;;;;;;;5036720;28;20067;-74
2023/07/07 00:43:58;;;;;;;8.18;3.90;;;;;;;;;;5050146;28;20032;-74
2023/07/07 00:46:43;;;;;;;6.55;2.92;;;;;;;;;;5033997;28;20025;-74
2023/07/07 00:49:29;;;;;;;4.25;2.75;;;;;;;;;;5050658;28;20629;-74
2023/07/07 00:52:14;;;;;;;6.28;3.15;;;;;;;;;;5035401;28;20036;-73
2023/07/07 00:54:59;;;;;;;8.40;3.25;;;;;;;;;;5056702;28;20062;-74
2023/07/07 00:57:45;;;;;;;7.20;3.30;;;;;;;;;;5022546;28;20025;-74
2023/07/07 01:00:30;;;;;;;8.13;2.78;;;;;;;;;;5034259;28;20013;-79
2023/07/07 01:03:19;;;;;;;6.63;3.13;;;;;;;;;;5050875;28;20116;-77
2023/07/07 01:06:06;;;;;;;7.55;3.65;;;;;;;;;;5051188;28;20017;-79
2023/07/07 01:09:00;;;;;;;5.00;2.95;;;;;;;;;;5034092;28;20045;-80
2023/07/07 01:11:46;;;;;;;4.88;2.88;;;;;;;;;;5043782;28;20037;-79
2023/07/07 01:14:32;;;;;;;5.40;3.00;;;;;;;;;;5037688;28;20388;-75
2023/07/07 01:17:36;;;;;;;6.95;3.00;;;;;;;;;;5054384;28;20509;-68
2023/07/07 01:20:24;;;;;;;4.50;2.97;;;;;;;;;;5030056;28;20544;-68
2023/07/07 01:23:20;;;;;;;7.85;3.50;;;;;;;;;;5028139;28;20587;-68
2023/07/07 01:26:05;;;;;;;9.27;3.30;;;;;;;;;;5038774;28;20499;-69
2023/07/07 01:28:53;;;;;;;5.13;3.17;;;;;;;;;;5049055;28;20071;-69
2023/07/07 01:31:43;;;;;;;6.95;3.42;;;;;;;;;;5049595;28;20061;-69
2023/07/07 01:34:28;;;;;;;7.50;3.40;;;;;;;;;;5046346;28;20559;-74
2023/07/07 01:37:14;;;;;;;5.72;3.17;;;;;;;;;;5048423;28;20468;-81
2023/07/07 01:40:00;;;;;;;6.22;3.28;;;;;;;;;;5032888;28;20523;-80
2023/07/07 01:42:47;;;;;;;4.78;2.88;;;;;;;;;;5026442;28;20179;-79
2023/07/07 01:45:37;;;;;;;5.60;3.28;;;;;;;;;;5036464;28;20498;-80
2023/07/07 01:48:29;;;;;;;9.57;2.90;;;;;;;;;;5025475;28;20084;-79
2023/07/07 01:51:15;;;;;;;7.47;3.10;;;;;;;;;;5045500;28;20086;-77
2023/07/07 01:54:02;;;;;;;6.88;3.47;;;;;;;;;;5031649;28;20101;-72
2023/07/07 01:56:48;;;;;;;6.03;3.00;;;;;;;;;;5049427;28;20050;-71
2023/07/07 01:59:34;;;;;;;6.85;3.17;;;;;;;;;;5032954;28;20028;-70
2023/07/07 02:02:19;;;;;;;5.63;3.33;;;;;;;;;;5035433;28;20043;-70
2023/07/07 02:05:04;;;;;;;6.97;3.20;;;;;;;;;;5049330;28;20037;-69
2023/07/07 02:07:50;;;;;;;5.30;2.78;;;;;;;;;;5048917;28;20024;-70
2023/07/07 02:10:35;;;;;;;6.15;2.90;;;;;;;;;;5024361;28;20041;-68
2023/07/07 02:13:20;;;;;;;5.05;2.72;;;;;;;;;;5048393;28;20017;-69
2023/07/07 02:16:07;;;;;;;6.22;2.95;;;;;;;;;;5034594;28;20572;-69
2023/07/07 02:18:52;;;;;;;5.40;3.10;;;;;;;;;;5034582;28;20025;-70
2023/07/07 02:21:37;;;;;;;4.53;2.78;;;;;;;;;;5048924;28;20383;-70
2023/07/07 02:24:22;;;;;;;6.07;3.15;;;;;;;;;;5047111;28;20127;-70
2023/07/07 02:27:10;;;;;;;5.50;3.00;;;;;;;;;;5038226;28;20031;-70
2023/07/07 02:29:55;;;;;;;4.18;2.92;;;;;;;;;;5036000;28;20047;-70
2023/07/07 02:32:41;;;;;;;5.68;2.90;;;;;;;;;;5048812;28;20036;-73
2023/07/07 02:35:26;;;;;;;6.15;3.10;;;;;;;;;;5039159;28;20041;-72
2023/07/07 02:38:11;;;;;;;6.05;3.53;;;;;;;;;;5048656;28;20570;-73
2023/07/07 02:40:56;;;;;;;7.57;3.00;;;;;;;;;;5038413;28;20044;-72
2023/07/07 02:43:42;;;;;;;9.48;3.08;;;;;;;;;;5040729;28;20029;-73
2023/07/07 02:46:27;;;;;;;5.60;2.97;;;;;;;;;;5032230;28;20391;-73
2023/07/07 02:49:12;;;;;;;5.47;2.58;;;;;;;;;;5052448;28;20060;-74
2023/07/07 02:51:57;;;;;;;5.45;2.67;;;;;;;;;;5048768;28;20029;-73
2023/07/07 02:54:43;;;;;;;7.68;3.08;;;;;;;;;;5047080;28;20025;-74
2023/07/07 02:57:28;;;;;;;6.70;3.20;;;;;;;;;;5045128;28;20388;-75
2023/07/07 03:00:13;;;;;;;4.65;2.78;;;;;;;;;;5029624;28;20025;-74
2023/07/07 03:02:58;;;;;;;5.78;3.05;;;;;;;;;;5040756;28;20017;-76
2023/07/07 03:05:44;;;;;;;6.10;3.30;;;;;;;;;;5015317;28;20503;-71
2023/07/07 03:08:29;;;;;;;4.82;3.13;;;;;;;;;;5036634;28;20120;-70
2023/07/07 03:11:16;;;;;;;5.20;2.53;;;;;;;;;;5040230;28;20064;-69
2023/07/07 03:14:02;;;;;;;5.78;3.10;;;;;;;;;;5047271;28;20028;-68
2023/07/07 03:16:51;;;;;;;5.50;3.10;;;;;;;;;;5048274;28;20068;-72
2023/07/07 03:19:36;;;;;;;7.82;3.47;;;;;;;;;;5047475;28;20032;-68
2023/07/07 03:22:21;;;;;;;5.63;3.03;;;;;;;;;;5045428;28;20021;-71
2023/07/07 03:25:07;;;;;;;6.22;3.22;;;;;;;;;;5040576;28;20033;-70
2023/07/07 03:27:52;;;;;;;4.85;2.95;;;;;;;;;;5046790;28;20033;-72
2023/07/07 03:30:37;;;;;;;5.35;3.35;;;;;;;;;;5037190;28;20509;-73
2023/07/07 03:33:23;;;;;;;5.55;3.08;;;;;;;;;;5048102;28;20062;-75
2023/07/07 03:36:10;;;;;;;4.97;2.85;;;;;;;;;;5047722;28;20029;-74
2023/07/07 03:38:55;;;;;;;6.55;2.90;;;;;;;;;;5047926;28;20203;-72
2023/07/07 03:41:40;;;;;;;4.93;3.10;;;;;;;;;;5042761;28;20032;-72
2023/07/07 03:44:26;;;;;;;4.90;3.13;;;;;;;;;;5034640;28;20520;-73
2023/07/07 03:47:11;;;;;;;6.00;3.20;;;;;;;;;;5047961;28;20025;-75
2023/07/07 03:49:57;;;;;;;6.85;3.28;;;;;;;;;;5047185;28;20056;-73
2023/07/07 03:52:42;;;;;;;5.90;2.88;;;;;;;;;;5047925;28;20037;-74
2023/07/07 03:55:27;;;;;;;6.18;3.17;;;;;;;;;;5058061;28;20538;-74
2023/07/07 03:58:12;;;;;;;7.45;3.10;;;;;;;;;;5056509;28;20032;-73
2023/07/07 04:01:01;;;;;;;6.45;3.15;;;;;;;;;;5038152;28;20024;-68
2023/07/07 04:03:47;;;;;;;5.03;3.30;;;;;;;;;;5032159;28;20078;-78
2023/07/07 04:06:33;;;;;;;5.13;2.90;;;;;;;;;;5048277;28;20110;-78
2023/07/07 04:09:18;;;;;;;6.63;3.15;;;;;;;;;;5023776;28;20037;-77
2023/07/07 04:12:07;;;;;;;6.80;3.30;;;;;;;;;;5044053;28;20029;-78
2023/07/07 04:14:52;;;;;;;5.47;2.97;;;;;;;;;;5023198;28;20487;-76
2023/07/07 04:17:37;;;;;;;10.43;3.05;;;;;;;;;;5053334;28;20636;-72
2023/07/07 04:20:23;;;;;;;5.15;2.90;;;;;;;;;;5043347;28;20094;-70
2023/07/07 04:23:08;;;;;;;8.40;3.30;;;;;;;;;;5047549;28;20021;-77
2023/07/07 04:25:53;;;;;;;7.22;3.42;;;;;;;;;;5044724;28;20040;-79
2023/07/07 04:28:39;;;;;;;7.55;3.53;;;;;;;;;;5051454;28;20136;-79
2023/07/07 04:31:25;;;;;;;6.00;2.90;;;;;;;;;;5036105;28;20032;-79
2023/07/07 04:34:12;;;;;;;8.98;3.78;;;;;;;;;;5047287;28;20479;-78
2023/07/07 04:36:57;;;;;;;6.00;3.00;;;;;;;;;;5047586;28;20028;-75
2023/07/07 04:39:42;;;;;;;6.55;3.70;;;;;;;;;;5047606;28;20033;-75
2023/07/07 04:42:27;;;;;;;5.85;3.17;;;;;;;;;;5023647;28;20029;-75
2023/07/07 04:45:13;;;;;;;8.25;3.22;;;;;;;;;;5047518;28;20116;-74
2023/07/07 04:47:58;;;;;;;6.97;3.42;;;;;;;;;;5047684;28;20021;-75
2023/07/07 04:50:43;;;;;;;6.78;3.65;;;;;;;;;;5040716;28;20140;-72
2023/07/07 04:53:29;;;;;;;6.03;3.42;;;;;;;;;;5030453;28;20087;-74
2023/07/07 04:56:16;;;;;;;5.93;3.50;;;;;;;;;;5047452;28;20041;-78
2023/07/07 04:59:02;;;;;;;5.10;3.40;;;;;;;;;;5030009;28;20470;-69
2023/07/07 05:01:47;;;;;;;7.07;3.15;;;;;;;;;;5033497;28;20072;-67
2023/07/07 05:04:33;;;;;;;7.13;3.10;;;;;;;;;;5040059;28;20072;-68
2023/07/07 05:07:19;;;;;;;7.18;3.70;;;;;;;;;;5036957;28;20035;-70
2023/07/07 05:10:05;;;;;;;8.25;3.63;;;;;;;;;;5031372;28;20127;-70
2023/07/07 05:12:51;;;;;;;6.22;3.55;;;;;;;;;;5050650;28;20021;-79
2023/07/07 05:15:36;;;;;;;5.68;3.60;;;;;;;;;;5050250;28;20503;-73
2023/07/07 05:18:22;;;;;;;7.18;3.45;;;;;;;;;;5056221;28;20025;-74
2023/07/07 05:21:08;;;;;;;9.32;3.70;;;;;;;;;;5057866;28;20032;-74
2023/07/07 05:23:53;;;;;;;8.27;3.65;;;;;;;;;;5036304;28;20032;-72
2023/07/07 05:26:38;;;;;;;8.40;3.55;;;;;;;;;;5044294;28;20525;-73
2023/07/07 05:29:25;;;;;;;6.70;3.45;;;;;;;;;;5050538;28;20028;-73
2023/07/07 05:32:10;;;;;;;7.13;3.60;;;;;;;;;;5050477;28;20036;-73
2023/07/07 05:34:55;;;;;;;7.60;3.30;;;;;;;;;;5046900;28;20384;-67
2023/07/07 05:37:40;;;;;;;7.43;3.72;;;;;;;;;;5050231;28;20032;-67
2023/07/07 05:40:26;;;;;;;10.27;3.30;;;;;;;;;;5046506;28;20536;-67
2023/07/07 05:43:12;;;;;;;5.93;3.10;;;;;;;;;;5039914;28;20025;-69
2023/07/07 05:46:01;;;;;;;5.28;2.90;;;;;;;;;;5046349;28;20025;-68
2023/07/07 05:48:46;;;;;;;7.50;3.72;;;;;;;;;;5049969;28;20021;-68
2023/07/07 05:51:32;;;;;;;5.40;3.35;;;;;;;;;;5035888;28;20124;-68
2023/07/07 05:54:17;;;;;;;5.00;3.13;;;;;;;;;;5030406;28;20021;-80
2023/07/07 05:57:02;;;;;;;9.95;3.78;;;;;;;;;;5051674;28;20024;-79
2023/07/07 05:59:48;;;;;;;5.95;3.00;;;;;;;;;;5049005;28;20475;-79
2023/07/07 06:02:33;;;;;;;9.50;3.75;;;;;;;;;;5036091;28;20036;-79
2023/07/07 06:05:18;;;;;;;6.57;3.22;;;;;;;;;;5046866;28;20659;-81
2023/07/07 06:08:04;;;;;;;6.55;3.70;;;;;;;;;;5048059;28;20163;-79
2023/07/07 06:10:49;;;;;;;8.15;3.05;;;;;;;;;;5038423;28;20086;-69
2023/07/07 06:13:35;;;;;;;5.25;2.80;;;;;;;;;;5049289;28;20116;-71
2023/07/07 06:16:20;;;;;;;8.43;3.78;;;;;;;;;;5042072;28;20112;-70
2023/07/07 06:19:05;;;;;;;10.23;3.58;;;;;;;;;;5041953;28;20044;-70
2023/07/07 06:21:50;;;;;;;5.05;2.83;;;;;;;;;;5022765;28;20021;-70
2023/07/07 06:24:36;;;;;;;9.90;3.28;;;;;;;;;;5037468;28;20074;-69
2023/07/07 06:27:21;;;;;;;6.30;3.03;;;;;;;;;;5045799;28;20104;-76
2023/07/07 06:30:06;;;;;;;6.45;3.42;;;;;;;;;;5048954;28;20037;-72
2023/07/07 06:32:52;;;;;;;6.68;3.30;;;;;;;;;;5016031;28;20032;-71
2023/07/07 06:35:37;;;;;;;5.13;2.80;;;;;;;;;;5016591;28;20376;-70
2023/07/07 06:38:22;;;;;;;6.07;3.20;;;;;;;;;;5028583;28;20082;-71
2023/07/07 06:41:10;;;;;;;6.68;3.35;;;;;;;;;;5031861;28;20464;-70
2023/07/07 06:43:56;;;;;;;9.43;4.22;;;;;;;;;;5041754;28;20029;-71
2023/07/07 06:46:41;;;;;;;6.18;3.60;;;;;;;;;;5036803;28;20523;-68
2023/07/07 06:49:27;;;;;;;7.28;3.50;;;;;;;;;;5047608;28;20044;-81
2023/07/07 06:52:12;;;;;;;7.25;3.47;;;;;;;;;;5049867;28;20051;-79
2023/07/07 06:54:57;;;;;;;6.70;3.78;;;;;;;;;;5038280;28;20112;-79
2023/07/07 06:57:42;;;;;;;7.13;3.72;;;;;;;;;;5056537;28;20103;-79
2023/07/07 07:00:29;;;;;;;6.93;3.83;;;;;;;;;;5049659;28;20071;-81
2023/07/07 07:03:14;;;;;;;9.13;3.42;;;;;;;;;;5049522;28;20028;-74
2023/07/07 07:05:59;;;;;;;8.13;3.85;;;;;;;;;;5048368;28;20013;-72
2023/07/07 07:08:44;;;;;;;8.02;3.50;;;;;;;;;;5049929;28;20032;-81
2023/07/07 07:11:30;;;;;;;6.57;3.88;;;;;;;;;;5042506;28;20087;-80
2023/07/07 07:14:15;;;;;;;7.97;3.13;;;;;;;;;;5048534;28;20017;-81
2023/07/07 07:17:00;;;;;;;6.43;3.40;;;;;;;;;;5050828;28;20024;-80
2023/07/07 07:19:45;;;;;;;8.48;4.03;;;;;;;;;;5048692;28;20033;-79
2023/07/07 07:22:31;;;;;;;9.38;4.18;;;;;;;;;;5045225;28;20104;-73
2023/07/07 07:25:16;;;;;;;7.88;3.90;;;;;;;;;;5041986;28;20085;-79
2023/07/07 07:28:01;;;;;;;8.75;4.15;;;;;;;;;;5051764;28;20032;-79
2023/07/07 07:30:48;;;;;;;8.73;3.80;;;;;;;;;;5039412;28;20040;-81
2023/07/07 07:33:33;;;;;;;7.80;4.22;;;;;;;;;;5049387;28;20029;-79
2023/07/07 07:36:18;;;;;;;6.43;3.97;;;;;;;;;;5036658;28;20029;-78
2023/07/07 07:39:04;;;;;;;9.70;4.43;;;;;;;;;;5047076;28;20107;-78
2023/07/07 07:41:50;;;;;;;7.95;4.00;;;;;;;;;;5027073;28;20024;-74
2023/07/07 07:44:35;;;;;;;13.98;4.43;;;;;;;;;;5032032;28;20530;-72
2023/07/07 07:47:20;;;;;;;7.72;4.00;;;;;;;;;;5048024;28;20013;-71
2023/07/07 07:50:06;;;;;;;9.82;4.57;;;;;;;;;;5047544;28;20049;-71
2023/07/07 07:52:51;;;;;;;6.53;3.95;;;;;;;;;;5047950;28;20455;-70
2023/07/07 07:55:36;;;;;;;7.68;4.57;;;;;;;;;;5047929;28;20119;-68
2023/07/07 07:58:21;;;;;;;7.90;3.60;;;;;;;;;;5052517;28;20045;-70
2023/07/07 08:01:07;;;;;;;6.28;3.80;;;;;;;;;;5028124;28;20029;-70
2023/07/07 08:03:52;;;;;;;8.55;4.63;;;;;;;;;;5047682;28;20106;-71
2023/07/07 08:06:41;;;;;;;7.95;4.47;;;;;;;;;;5047223;28;20066;-70
2023/07/07 08:09:27;;;;;;;;;;;;;;;;;;5028290;28;20021;-71
2023/07/07 08:12:12;;;;;;;7.97;4.03;;;;;;;;;;5022733;28;19912;-73
2023/07/07 08:14:57;;;;;;;8.38;4.28;;;;;;;;;;5047785;28;20025;-71
2023/07/07 08:17:42;;;;;;;8.52;4.20;;;;;;;;;;5046494;28;20571;-76
2023/07/07 08:20:27;;;;;;;6.13;3.55;;;;;;;;;;5028422;28;20051;-78
2023/07/07 08:23:13;;;;;;;6.55;4.13;;;;;;;;;;5028015;28;20057;-80
2023/07/07 08:25:58;;;;;;;7.22;3.88;;;;;;;;;;5047069;28;20064;-78
2023/07/07 08:28:44;;;;;;;9.82;3.97;;;;;;;;;;5050938;28;20025;-81
2023/07/07 08:31:29;;;;;;;8.57;4.00;;;;;;;;;;5047812;28;20037;-80
2023/07/07 08:34:14;;;;;;;7.05;4.07;;;;;;;;;;5051537;28;20211;-80
2023/07/07 08:37:00;;;;;;;6.05;3.90;;;;;;;;;;5051326;28;20151;-70
2023/07/07 08:39:45;;;;;;;8.65;4.00;;;;;;;;;;5051197;28;20036;-75
2023/07/07 08:42:32;;;;;;;6.82;4.10;;;;;;;;;;5040463;28;20449;-75
2023/07/07 08:45:19;;;;;;;12.27;4.30;;;;;;;;;;5051108;28;20028;-73
2023/07/07 08:48:16;;;;;;;12.38;4.32;;;;;;;;;;5051088;28;20119;-74
2023/07/07 08:51:03;;;;;;;6.78;4.18;;;;;;;;;;5050511;28;20049;-74
2023/07/07 08:53:53;;;;;;;6.97;4.60;;;;;;;;;;5051267;28;20234;-69
2023/07/07 08:56:44;;;;;;;8.23;4.18;;;;;;;;;;5050079;28;20092;-80
2023/07/07 08:59:36;;;;;;;8.07;4.97;;;;;;;;;;5045738;28;20079;-69
2023/07/07 09:02:33;;;;;;;12.65;4.82;;;;;;;;;;5051273;28;20725;-70
2023/07/07 09:05:18;;;;;;;9.88;4.57;;;;;;;;;;5047226;28;20052;-68
2023/07/07 09:08:03;;;;;;;7.72;4.50;;;;;;;;;;5031275;28;20519;-69
2023/07/07 09:10:52;;;;;;;8.60;4.95;;;;;;;;;;5037756;28;20520;-71
2023/07/07 09:13:38;;;;;;;11.07;4.47;;;;;;;;;;5050190;28;20100;-74
2023/07/07 09:16:32;;;;;;;10.13;4.72;;;;;;;;;;5035038;28;20033;-71
2023/07/07 09:19:24;;;;;;;8.52;4.95;;;;;;;;;;5037217;28;20379;-71
2023/07/07 09:22:15;;;;;;;7.85;4.75;;;;;;;;;;5049319;28;20128;-73
2023/07/07 09:25:06;;;;;;;9.50;4.72;;;;;;;;;;5042382;28;20037;-72
2023/07/07 09:28:02;;;;;;;8.52;4.65;;;;;;;;;;5051315;28;20069;-72
2023/07/07 09:30:50;;;;;;;10.65;5.70;;;;;;;;;;5050000;28;20512;-71
2023/07/07 09:33:35;;;;;;;8.52;5.40;;;;;;;;;;5049684;28;20483;-80
2023/07/07 09:36:41;;;;;;;7.68;4.82;;;;;;;;;;5030066;28;20025;-69
2023/07/07 09:39:38;;;;;;;7.78;5.00;;;;;;;;;;5048536;28;20024;-68
2023/07/07 09:42:41;;;;;;;10.20;5.97;;;;;;;;;;5039620;28;20390;-69
2023/07/07 09:45:34;;;;;;;10.02;5.20;;;;;;;;;;5032601;28;20032;-69
2023/07/07 09:48:33;;;;;;;8.98;5.35;;;;;;;;;;5037764;28;20530;-68
2023/07/07 09:51:21;;;;;;;8.68;5.18;;;;;;;;;;5048972;28;20049;-79
2023/07/07 09:54:10;;;;;;;11.47;5.47;;;;;;;;;;5049918;28;20411;-71
2023/07/07 09:56:58;;;;;;;9.02;5.38;;;;;;;;;;5050523;28;20024;-73
2023/07/07 09:59:46;;;;;;;8.93;5.43;;;;;;;;;;5052153;28;20048;-73
2023/07/07 10:02:32;;;;;;;9.73;5.32;;;;;;;;;;5029715;28;20025;-75
2023/07/07 10:05:20;;;;;;;9.10;5.18;;;;;;;;;;5033667;28;20021;-73
2023/07/07 10:08:08;;;;;;;9.52;6.72;;;;;;;;;;5050592;28;20041;-74
2023/07/07 10:11:12;;;;;;;9.18;5.60;;;;;;;;;;5049457;28;20037;-80
2023/07/07 10:13:57;;;;;;;10.60;5.22;;;;;;;;;;5050042;28;20021;-79
2023/07/07 10:17:00;;;;;;;9.05;5.70;;;;;;;;;;5054409;28;20471;-79
2023/07/07 10:19:58;;;;;;;8.27;5.55;;;;;;;;;;5040277;28;20033;-79
2023/07/07 10:22:43;;;;;;;10.73;5.82;;;;;;;;;;5043552;28;20031;-79
2023/07/07 10:25:30;;;;;;;13.95;6.63;;;;;;;;;;5044517;28;20021;-78
2023/07/07 10:28:16;;;;;;;8.82;5.97;;;;;;;;;;5046362;28;20067;-80
2023/07/07 10:31:02;;;;;;;9.85;6.35;;;;;;;;;;5048885;28;20060;-74
2023/07/07 10:33:49;;;;;;;10.45;6.72;;;;;;;;;;5049327;28;20021;-74
2023/07/07 10:36:40;;;;;;;12.50;6.85;;;;;;;;;;5048739;28;20104;-73
2023/07/07 10:39:26;;;;;;;10.93;6.30;;;;;;;;;;5033397;28;20055;-73
2023/07/07 10:42:11;;;;;;;10.15;6.18;;;;;;;;;;5039474;28;20116;-75
2023/07/07 10:44:58;;;;;;;11.15;6.40;;;;;;;;;;5036766;28;20361;-73
2023/07/07 10:47:43;;;;;;;9.88;6.55;;;;;;;;;;5049067;28;20041;-74
2023/07/07 10:50:33;;;;;;;10.43;6.55;;;;;;;;;;5048379;28;20045;-74
2023/07/07 10:53:26;;;;;;;9.93;6.80;;;;;;;;;;5048747;28;20029;-74
2023/07/07 10:56:30;;;;;;;11.38;6.97;;;;;;;;;;5047711;28;20016;-75
2023/07/07 10:59:19;;;;;;;13.63;8.85;;;;;;;;;;5047394;28;20139;-74
2023/07/07 11:02:32;;;;;;;13.98;7.97;;;;;;;;;;5033368;28;20021;-74
2023/07/07 11:05:36;;;;;;;12.80;8.07;;;;;;;;;;5031991;28;20016;-71
2023/07/07 11:08:21;;;;;;;13.65;8.00;;;;;;;;;;5048144;28;20442;-72
2023/07/07 11:11:13;;;;;;;14.80;7.45;;;;;;;;;;5048065;28;20032;-73
2023/07/07 11:14:10;;;;;;;12.38;6.63;;;;;;;;;;5047756;28;20438;-72
2023/07/07 11:17:05;;;;;;;11.65;8.43;;;;;;;;;;5053412;28;20033;-69
2023/07/07 11:19:53;;;;;;;13.38;7.88;;;;;;;;;;5028168;28;20527;-70
2023/07/07 11:22:57;;;;;;;11.48;7.60;;;;;;;;;;5037876;28;20044;-67
2023/07/07 11:25:55;;;;;;;14.32;7.57;;;;;;;;;;5045775;28;20037;-75
2023/07/07 11:28:48;;;;;;;10.60;6.72;;;;;;;;;;5049141;28;20071;-76
2023/07/07 11:31:50;;;;;;;11.40;5.88;;;;;;;;;;5047764;28;20480;-77
2023/07/07 11:34:44;;;;;;;10.15;6.82;;;;;;;;;;5034298;28;20472;-77
2023/07/07 11:37:48;;;;;;;12.65;7.80;;;;;;;;;;5047718;28;20021;-79
2023/07/07 11:40:49;;;;;;;12.75;8.10;;;;;;;;;;5048437;28;20056;-73
2023/07/07 11:43:50;;;;;;;11.50;7.07;;;;;;;;;;5038660;28;20100;-70
2023/07/07 11:46:41;;;;;;;11.73;8.10;;;;;;;;;;5047949;28;20423;-70
2023/07/07 11:49:34;;;;;;;13.65;7.90;;;;;;;;;;5047405;28;20056;-70
2023/07/07 11:52:26;;;;;;;11.05;7.40;;;;;;;;;;5027896;28;20048;-70
2023/07/07 11:55:20;;;;;;;11.13;7.45;;;;;;;;;;5028179;28;20025;-70
2023/07/07 11:58:17;;;;;;;10.82;7.20;;;;;;;;;;5051887;28;20032;-70
2023/07/07 12:01:14;;;;;;;11.60;6.93;;;;;;;;;;5037839;28;20025;-75
2023/07/07 12:04:05;;;;;;;12.07;7.82;;;;;;;;;;5034567;28;20024;-75
2023/07/07 12:06:57;;;;;;;11.30;7.10;;;;;;;;;;5049207;28;20036;-74
2023/07/07 12:09:55;;;;;;;10.25;6.68;;;;;;;;;;5052346;28;20025;-73
2023/07/07 12:12:44;;;;;;;11.20;7.60;;;;;;;;;;5051816;28;20017;-73
2023/07/07 12:15:35;;;;;;;13.15;7.15;;;;;;;;;;5051516;28;20013;-75
2023/07/07 12:18:30;;;;;;;11.00;6.78;;;;;;;;;;5051675;28;20037;-70
2023/07/07 12:21:24;;;;;;;11.00;6.68;;;;;;;;;;5031556;28;20104;-70
2023/07/07 12:24:16;;;;;;;12.98;7.38;;;;;;;;;;5038804;28;20430;-70
2023/07/07 12:27:08;;;;;;;10.00;6.75;;;;;;;;;;5050297;28;20047;-69
2023/07/07 12:29:54;;;;;;;13.18;6.97;;;;;;;;;;5031554;28;20038;-72
2023/07/07 12:32:39;;;;;;;10.80;6.93;;;;;;;;;;5035802;28;20108;-69
2023/07/07 12:35:35;;;;;;;10.95;6.35;;;;;;;;;;5051394;28;20068;-68
2023/07/07 12:38:26;;;;;;;9.52;6.05;;;;;;;;;;5058204;28;20064;-74
2023/07/07 12:41:16;;;;;;;10.68;6.93;;;;;;;;;;5050009;28;20025;-74
2023/07/07 12:44:05;;;;;;;10.90;7.05;;;;;;;;;;5045634;28;20028;-72
2023/07/07 12:46:50;;;;;;;11.25;6.60;;;;;;;;;;5033576;28;20521;-73
2023/07/07 12:49:38;;;;;;;10.88;7.35;;;;;;;;;;5036330;28;20044;-73
2023/07/07 12:52:25;;;;;;;10.50;6.45;;;;;;;;;;5043945;28;20034;-73
2023/07/07 12:55:37;;;;;;;10.70;6.88;;;;;;;;;;5039425;28;20021;-71
2023/07/07 12:58:22;;;;;;;10.68;6.82;;;;;;;;;;5057450;28;20514;-77
2023/07/07 13:01:10;;;;;;;9.88;6.10;;;;;;;;;;5026133;28;20038;-77
2023/07/07 13:04:07;;;;;;;11.07;7.25;;;;;;;;;;5037308;28;20029;-78
2023/07/07 13:06:55;;;;;;;9.65;6.47;;;;;;;;;;5048545;28;20136;-78
2023/07/07 13:09:46;;;;;;;11.67;7.00;;;;;;;;;;5042738;28;20116;-78
2023/07/07 13:12:37;;;;;;;10.38;7.15;;;;;;;;;;5050590;28;20317;-78
2023/07/07 13:15:26;;;;;;;9.38;5.93;;;;;;;;;;5033022;28;20121;-81
2023/07/07 13:18:13;;;;;;;10.32;6.50;;;;;;;;;;5053562;28;20044;-84
2023/07/07 13:21:04;;;;;;;9.50;6.05;;;;;;;;;;5051174;28;20021;-82
2023/07/07 13:23:50;;;;;;;11.65;6.60;;;;;;;;;;5037234;28;20037;-77
2023/07/07 13:26:35;;;;;;;10.98;6.95;;;;;;;;;;5043821;28;20271;-83
2023/07/07 13:29:21;;;;;;;10.15;6.90;;;;;;;;;;5050726;28;20032;-79
2023/07/07 13:32:06;;;;;;;9.98;6.07;;;;;;;;;;5049986;28;20041;-73
2023/07/07 13:34:51;;;;;;;11.65;7.13;;;;;;;;;;5050155;28;20033;-70
2023/07/07 13:37:37;;;;;;;11.25;6.43;;;;;;;;;;5039456;28;20103;-69
2023/07/07 13:40:22;;;;;;;10.60;6.75;;;;;;;;;;5030423;28;20059;-72
2023/07/07 13:43:16;;;;;;;10.60;6.78;;;;;;;;;;5023292;28;20029;-70
2023/07/07 13:46:21;;;;;;;12.57;6.65;;;;;;;;;;5049786;28;20055;-70
2023/07/07 13:49:13;;;;;;;11.35;7.28;;;;;;;;;;5035496;28;20083;-68
2023/07/07 13:51:58;;;;;;;11.20;6.65;;;;;;;;;;5039351;28;20418;-79
2023/07/07 13:54:46;;;;;;;10.23;6.28;;;;;;;;;;5053058;28;20024;-79
2023/07/07 13:57:32;;;;;;;11.20;6.38;;;;;;;;;;5057700;28;20570;-78
2023/07/07 14:00:19;;;;;;;11.75;6.18;;;;;;;;;;5033839;28;20108;-78
2023/07/07 14:03:13;;;;;;;10.02;5.53;;;;;;;;;;5042982;28;20029;-76
2023/07/07 14:06:11;;;;;;;9.18;5.82;;;;;;;;;;5038570;28;20017;-78
2023/07/07 14:08:57;;;;;;;10.38;6.20;;;;;;;;;;5049205;28;20094;-72
2023/07/07 14:11:42;;;;;;;10.18;5.93;;;;;;;;;;5049101;28;20040;-75
2023/07/07 14:14:27;;;;;;;10.77;6.28;;;;;;;;;;5038442;28;20100;-73
2023/07/07 14:17:16;;;;;;;10.38;6.75;;;;;;;;;;5055315;28;20417;-73
2023/07/07 14:20:02;;;;;;;11.52;6.55;;;;;;;;;;5049365;28;20476;-72
2023/07/07 14:22:48;;;;;;;8.57;5.05;;;;;;;;;;5034312;28;20090;-73
2023/07/07 14:25:38;;;;;;;10.38;6.03;;;;;;;;;;5049191;28;20056;-72
2023/07/07 14:28:30;;;;;;;8.77;5.15;;;;;;;;;;5027020;28;20115;-72
2023/07/07 14:31:16;;;;;;;12.25;5.60;;;;;;;;;;5035151;28;20068;-73
2023/07/07 14:34:02;;;;;;;9.98;5.80;;;;;;;;;;5048884;28;20021;-72
2023/07/07 14:37:03;;;;;;;;;;;;;;;;;;;;;
2023/07/07 14:40:12;;;;;;;10.02;4.95;;;;;;;;;;5048945;28;20468;-73
2023/07/07 14:42:58;;;;;;;11.45;6.30;;;;;;;;;;5046750;28;20086;-74
2023/07/07 14:45:44;;;;;;;8.82;5.30;;;;;;;;;;5035798;28;20115;-70
2023/07/07 14:48:40;;;;;;;11.77;6.00;;;;;;;;;;5048868;28;20025;-73
2023/07/07 14:51:28;;;;;;;11.82;5.63;;;;;;;;;;5048429;28;20040;-73
2023/07/07 14:54:18;;;;;;;8.52;5.10;;;;;;;;;;5028876;28;20446;-73
2023/07/07 14:57:12;;;;;;;9.20;6.25;;;;;;;;;;5050770;28;20036;-74
2023/07/07 14:59:57;;;;;;;9.57;6.00;;;;;;;;;;5046724;28;20064;-74
2023/07/07 15:02:43;;;;;;;11.85;6.50;;;;;;;;;;5038625;28;20110;-80
2023/07/07 15:05:42;;;;;;;10.60;6.03;;;;;;;;;;5047585;28;20028;-69
2023/07/07 15:08:29;;;;;;;12.27;5.78;;;;;;;;;;5029486;28;20021;-72
2023/07/07 15:11:14;;;;;;;9.63;5.43;;;;;;;;;;5048555;28;20506;-69
2023/07/07 15:14:02;;;;;;;8.55;5.07;;;;;;;;;;5048038;28;20020;-71
2023/07/07 15:16:50;;;;;;;8.50;5.43;;;;;;;;;;5039775;28;20073;-67
2023/07/07 15:19:35;;;;;;;10.48;6.15;;;;;;;;;;5048285;28;20407;-69
2023/07/07 15:22:21;;;;;;;11.50;5.57;;;;;;;;;;5045426;28;20031;-78
2023/07/07 15:25:07;;;;;;;9.23;5.63;;;;;;;;;;5040619;28;20040;-68
2023/07/07 15:27:52;;;;;;;9.93;5.50;;;;;;;;;;5050885;28;20511;-72
2023/07/07 15:30:37;;;;;;;9.40;5.53;;;;;;;;;;5047729;28;20024;-70
2023/07/07 15:33:22;;;;;;;6.15;3.67;;;;;;;;;;5033809;28;20039;-62
2023/07/07 15:36:11;;;;;;;4.82;3.03;;;;;;;;;;5047747;28;20032;-63
2023/07/07 15:38:57;;;;;;;5.72;3.63;;;;;;;;;;5047278;28;20392;-60
2023/07/07 15:41:42;;;;;;;11.13;6.05;;;;;;;;;;5040315;28;20483;-82
2023/07/07 15:44:27;;;;;;;11.48;5.90;;;;;;;;;;5029597;28;20024;-74
2023/07/07 15:47:20;;;;;;;9.60;5.40;;;;;;;;;;5047574;28;20507;-73
2023/07/07 15:50:18;;;;;;;9.73;5.88;;;;;;;;;;5047364;28;20078;-75
2023/07/07 15:53:04;;;;;;;9.15;5.70;;;;;;;;;;5047193;28;20132;-75
2023/07/07 15:55:50;;;;;;;9.60;5.85;;;;;;;;;;5061027;28;20522;-75
2023/07/07 15:58:35;;;;;;;10.38;5.68;;;;;;;;;;5054123;28;20013;-74
2023/07/07 16:01:20;;;;;;;12.77;7.20;;;;;;;;;;5034291;28;20048;-69
2023/07/07 16:04:05;;;;;;;10.63;5.70;;;;;;;;;;5037687;28;20029;-69
2023/07/07 16:06:52;;;;;;;15.88;6.32;;;;;;;;;;5028961;28;20107;-69
2023/07/07 16:09:37;;;;;;;11.52;6.00;;;;;;;;;;5047220;28;20029;-68
2023/07/07 16:12:24;;;;;;;9.50;6.15;;;;;;;;;;5047163;28;20112;-68
2023/07/07 16:15:09;;;;;;;8.90;5.60;;;;;;;;;;5046983;28;20040;-68
2023/07/07 16:17:55;;;;;;;8.43;4.78;;;;;;;;;;5033359;28;20091;-67
2023/07/07 16:20:40;;;;;;;8.70;4.88;;;;;;;;;;5045685;28;20029;-69
2023/07/07 16:23:26;;;;;;;11.23;5.60;;;;;;;;;;5030471;28;20013;-70
2023/07/07 16:26:12;;;;;;;9.88;5.32;;;;;;;;;;5031453;28;20500;-71
2023/07/07 16:28:58;;;;;;;9.27;4.70;;;;;;;;;;5045126;28;20500;-69
2023/07/07 16:31:43;;;;;;;9.65;5.43;;;;;;;;;;5047304;28;20063;-70
2023/07/07 16:34:28;;;;;;;10.73;5.97;;;;;;;;;;5047366;28;20091;-83
2023/07/07 16:37:14;;;;;;;9.52;5.55;;;;;;;;;;5042221;28;20029;-80
2023/07/07 16:39:59;;;;;;;11.50;5.10;;;;;;;;;;5041280;28;20095;-82
2023/07/07 16:42:44;;;;;;;10.05;5.50;;;;;;;;;;5023301;28;20017;-81
2023/07/07 16:45:30;;;;;;;8.80;4.90;;;;;;;;;;5040831;28;20071;-80